Buoy 55937

sailwx.info

Track history (hours):
 
Tides and Currents Weather Stations Pressure Air Temp Water Temp Dewpoint Dewpoint Depression Visibility Wind Speed Wind Dir Waves Ship Positions

Drifting buoy 55937

Last reported at 2018-Jun-24 05:00 UTC. Time now 2018-Jun-24 07:08 UTC.
Position S 35°10' E 173°10'.

Water temperature 13.9 ° C

Date/timePositionNaut miles runAvg speedWind from/ knotsBaromVisibWave heightAir tempDewpointWater temp
2018-Jun-24 05:00S 35°10' E 173°10'0 0.0 13.9
2018-Jun-24 04:00S 35°10' E 173°10'1 0.4 14.7
2018-Jun-24 02:00S 35°10' E 173°10'0 0.0 16.3
2018-Jun-23 22:00S 35°10' E 173°10'1 0.8 11.2
2018-Jun-23 21:00S 35°10' E 173°10'0 0.0 9.4
2018-Jun-23 20:00S 35°10' E 173°10'1 0.8 7.3
2018-Jun-23 19:00S 35°10' E 173°10'0 0.5 6.7
2018-Jun-23 18:00S 35°10' E 173°10'0 0.2 6.8
2018-Jun-23 16:00S 35°10' E 173°10'1 0.6 7.1
2018-Jun-23 15:00S 35°10' E 173°10'0 0.0 8.0
2018-Jun-23 11:00S 35°10' E 173°10'0 0.0 7.7
2018-Jun-23 10:00S 35°10' E 173°10'1 0.8 8.4
2018-Jun-23 09:00S 35°10' E 173°09'1 0.6 9.7
2018-Jun-23 07:00S 35°10' E 173°10'0 0.2 11.0
2018-Jun-23 05:00S 35°10' E 173°10'1 0.3 12.7
2018-Jun-23 03:00S 35°10' E 173°10'1 0.1 13.6
2018-Jun-22 21:00S 35°10' E 173°10'0 0.0 10.3
2018-Jun-22 20:00S 35°10' E 173°10'0 0.2 9.3
2018-Jun-22 18:00S 35°10' E 173°10'0 0.5 8.7
2018-Jun-22 17:00S 35°10' E 173°10'0 0.0 8.6
2018-Jun-22 16:00S 35°10' E 173°10'0 0.0 8.1
2018-Jun-22 15:00S 35°10' E 173°10'0 0.0 8.7
2018-Jun-22 11:00S 35°10' E 173°10'0 0.0 10.5
2018-Jun-22 10:00S 35°10' E 173°10'0 0.5 10.8
2018-Jun-22 09:00S 35°10' E 173°10'1 0.4 10.6
2018-Jun-22 06:00S 35°10' E 173°09'1 0.4 10.8
2018-Jun-22 04:00S 35°10' E 173°10'0 0.0 13.7
2018-Jun-22 03:00S 35°10' E 173°10'0 0.0 14.5
2018-Jun-21 22:00S 35°10' E 173°10'1 0.6 13.9
2018-Jun-21 21:00S 35°10' E 173°10'1 0.8 13.3
2018-Jun-21 20:00S 35°10' E 173°09'0 0.2 10.8
2018-Jun-21 18:00S 35°10' E 173°10'0 0.0 11.1
2018-Jun-21 17:00S 35°10' E 173°10'0 0.0 11.2
2018-Jun-21 16:00S 35°10' E 173°10'0 0.0 11.6
2018-Jun-21 15:00S 35°10' E 173°10'0 0.0 11.8
2018-Jun-21 11:00S 35°10' E 173°10'0 0.0 12.2
2018-Jun-21 10:00S 35°10' E 173°10'0 0.0 12.5
2018-Jun-21 09:00S 35°10' E 173°10'0 0.0 12.6
2018-Jun-21 08:00S 35°10' E 173°10'0 0.2 12.6
2018-Jun-21 05:00S 35°10' E 173°10'0 0.5 13.4
2018-Jun-21 04:00S 35°10' E 173°10'0 0.0 13.9
2018-Jun-20 22:00S 35°10' E 173°10'0 0.0 12.9
2018-Jun-20 21:00S 35°10' E 173°10'0 0.0 13.8
2018-Jun-20 20:00S 35°10' E 173°10'0 0.0 12.6
2018-Jun-20 19:00S 35°10' E 173°10'0 0.0 12.3
2018-Jun-20 18:00S 35°10' E 173°10'0 0.0 12.5
2018-Jun-20 17:00S 35°10' E 173°10'0 0.0 13.0
2018-Jun-20 15:00S 35°10' E 173°10'0 0.0 12.2
2018-Jun-20 11:00S 35°10' E 173°10'0 0.0 13.1
2018-Jun-20 10:00S 35°10' E 173°10'0 0.0 13.1
2018-Jun-20 09:00S 35°10' E 173°10'1 0.4 13.0
2018-Jun-20 07:00S 35°10' E 173°09'1 0.8 12.4
2018-Jun-20 06:00S 35°10' E 173°10'0 0.5 13.1
2018-Jun-20 05:00S 35°10' E 173°10'0 0.5 13.4
2018-Jun-20 04:00S 35°10' E 173°10'0 0.0 14.5
2018-Jun-20 03:00S 35°10' E 173°10'0 0.0 13.5
2018-Jun-19 21:00S 35°10' E 173°10'0 0.0 13.9
2018-Jun-19 20:00S 35°10' E 173°10'0 0.0 12.0
2018-Jun-19 19:00S 35°10' E 173°10'0 0.0 11.6
2018-Jun-19 18:00S 35°10' E 173°10'0 0.0 10.8
2018-Jun-19 17:00S 35°10' E 173°10'0 0.0 10.5
2018-Jun-19 15:00S 35°10' E 173°10'0 0.0 10.8
2018-Jun-19 11:00S 35°10' E 173°10'0 0.5 12.7
2018-Jun-19 10:00S 35°10' E 173°10'0 0.2 12.9
2018-Jun-19 07:00S 35°10' E 173°10'0 0.0 14.0
2018-Jun-19 06:00S 35°10' E 173°10'0 0.0 14.1
2018-Jun-19 05:00S 35°10' E 173°10'1 0.6 15.2
2018-Jun-19 04:00S 35°10' E 173°10'1 0.1 16.4
2018-Jun-18 22:00S 35°10' E 173°10'0 0.0 13.6
2018-Jun-18 20:00S 35°10' E 173°10'0 0.5 9.7
2018-Jun-18 19:00S 35°10' E 173°10'1 0.8 11.0
2018-Jun-18 18:00S 35°10' E 173°10'0 0.0 12.6
2018-Jun-18 17:00S 35°10' E 173°10'0 0.0 13.3
2018-Jun-18 16:00S 35°10' E 173°10'0 0.0 13.2
2018-Jun-18 15:00S 35°10' E 173°10'1 0.8 12.8
2018-Jun-18 14:00S 35°10' E 173°09'0 0.0 14.5
2018-Jun-18 11:00S 35°10' E 173°09'0 0.5 14.7
2018-Jun-18 10:00S 35°10' E 173°10'0 0.0 14.8
2018-Jun-18 09:00S 35°10' E 173°10'1 0.6 14.8
2018-Jun-18 08:00S 35°10' E 173°10'0 0.0 14.6
2018-Jun-18 07:00S 35°10' E 173°10'1 0.6 14.8
2018-Jun-18 06:00S 35°10' E 173°10'0 0.5 14.7
2018-Jun-18 05:00S 35°10' E 173°10'0 0.5 15.1
2018-Jun-18 04:00S 35°10' E 173°10'1 0.1 15.9
2018-Jun-17 22:00S 35°10' E 173°10'1 0.6 16.7
2018-Jun-17 21:00S 35°10' E 173°10'0 0.0 17.0
2018-Jun-17 20:00S 35°10' E 173°10'1 0.4 14.2
2018-Jun-17 18:00S 35°11' E 173°10'1 0.4 15.0
2018-Jun-17 16:00S 35°10' E 173°10'0 0.0 13.9
2018-Jun-17 14:00S 35°10' E 173°10'0 0.0 13.1
2018-Jun-17 11:00S 35°10' E 173°10'0 0.0 12.7
2018-Jun-17 10:00S 35°10' E 173°10'0 0.0 13.7
2018-Jun-17 09:00S 35°10' E 173°10'0 0.0 13.7
2018-Jun-17 08:00S 35°10' E 173°10'1 0.6 13.9
2018-Jun-17 07:00S 35°10' E 173°10'1 0.3 13.9
2018-Jun-17 05:00S 35°10' E 173°10'0 0.0 15.8
2018-Jun-17 04:00S 35°10' E 173°10'0 0.0 16.8
2018-Jun-16 22:00S 35°10' E 173°10'1 0.6 14.5
2018-Jun-16 21:00S 35°10' E 173°10'1 0.6 14.5
2018-Jun-16 20:00S 35°10' E 173°10'0 0.0 14.7
2018-Jun-16 19:00S 35°10' E 173°10'0 0.0 15.0
2018-Jun-16 18:00S 35°10' E 173°10'0 0.0 15.2
2018-Jun-16 16:00S 35°10' E 173°10'0 0.0 15.5
2018-Jun-16 15:00S 35°10' E 173°10'0 0.0 15.6
2018-Jun-16 14:00S 35°10' E 173°10'0 0.2 15.8
2018-Jun-16 11:00S 35°10' E 173°10'0 0.0 16.4
2018-Jun-16 10:00S 35°10' E 173°10'0 0.0 16.5
2018-Jun-16 09:00S 35°10' E 173°10'0 0.0 16.7
2018-Jun-16 07:00S 35°10' E 173°10'0 0.2 17.0
2018-Jun-16 05:00S 35°10' E 173°10'0 0.0 17.3
2018-Jun-16 04:00S 35°10' E 173°10'1 0.8 17.2
2018-Jun-16 03:00S 35°10' E 173°09'0 0.1 17.1
2018-Jun-15 21:00S 35°10' E 173°10'1 0.6 14.5
2018-Jun-15 20:00S 35°09' E 173°10'1 1.2 14.5
2018-Jun-15 19:00S 35°10' E 173°10'0 0.0 14.5
2018-Jun-15 18:00S 35°10' E 173°10'0 0.0 14.5
2018-Jun-15 16:00S 35°10' E 173°10'0 0.0 14.4
2018-Jun-15 15:00S 35°10' E 173°10'0 0.0 14.4
2018-Jun-15 14:00S 35°10' E 173°10'0 0.0 14.4
2018-Jun-15 11:00S 35°10' E 173°10'0 0.5 14.4
2018-Jun-15 10:00S 35°10' E 173°10'0 0.0 14.5
2018-Jun-15 09:00S 35°10' E 173°10'0 0.2 14.6
2018-Jun-15 07:00S 35°10' E 173°10'1 0.6 14.6
2018-Jun-15 06:00S 35°10' E 173°10'1 0.8 14.6
2018-Jun-15 05:00S 35°10' E 173°10'0 0.5 14.5
2018-Jun-15 04:00S 35°10' E 173°10'0 0.5 14.2
2018-Jun-15 03:00S 35°10' E 173°10'0 0.0 13.6
2018-Jun-15 02:00S 35°10' E 173°10'0 0.0 12.9
2018-Jun-14 22:00S 35°10' E 173°10'0 0.5 10.2
2018-Jun-14 21:00S 35°10' E 173°10'0 0.0 10.1
2018-Jun-14 20:00S 35°10' E 173°10'0 0.0 10.3
2018-Jun-14 19:00S 35°10' E 173°10'0 0.0 10.5
2018-Jun-14 17:00S 35°10' E 173°10'0 0.0 11.0
2018-Jun-14 16:00S 35°10' E 173°10'0 0.5 11.2
2018-Jun-14 15:00S 35°10' E 173°09'0 0.5 11.3
2018-Jun-14 14:00S 35°10' E 173°10'0 0.0 11.4
2018-Jun-14 11:00S 35°10' E 173°10'0 0.5 12.4
2018-Jun-14 10:00S 35°10' E 173°10'0 0.2 12.7
2018-Jun-14 08:00S 35°10' E 173°10'1 0.6 13.3
2018-Jun-14 07:00S 35°10' E 173°10'1 0.6 13.6
2018-Jun-14 06:00S 35°10' E 173°10'0 0.0 13.9
2018-Jun-14 05:00S 35°10' E 173°10'   14.0
Track history (hours):
 
Tides and Currents Weather Stations Pressure Air Temp Water Temp Dewpoint Dewpoint Depression Visibility Wind Speed Wind Dir Waves Ship Positions

Drifting buoy 55937

Last reported at 2018-Jun-24 05:00 UTC. Time now 2018-Jun-24 07:08 UTC.
Position S 35°10' E 173°10'.

Water temperature 13.9 ° C

Date/timePositionNaut miles runAvg speedWind from/ knotsBaromVisibWave heightAir tempDewpointWater temp
2018-Jun-24 05:00S 35°10' E 173°10'0 0.0 13.9
2018-Jun-24 04:00S 35°10' E 173°10'1 0.4 14.7
2018-Jun-24 02:00S 35°10' E 173°10'0 0.0 16.3
2018-Jun-23 22:00S 35°10' E 173°10'1 0.8 11.2
2018-Jun-23 21:00S 35°10' E 173°10'0 0.0 9.4
2018-Jun-23 20:00S 35°10' E 173°10'1 0.8 7.3
2018-Jun-23 19:00S 35°10' E 173°10'0 0.5 6.7
2018-Jun-23 18:00S 35°10' E 173°10'0 0.2 6.8
2018-Jun-23 16:00S 35°10' E 173°10'1 0.6 7.1
2018-Jun-23 15:00S 35°10' E 173°10'0 0.0 8.0
2018-Jun-23 11:00S 35°10' E 173°10'0 0.0 7.7
2018-Jun-23 10:00S 35°10' E 173°10'1 0.8 8.4
2018-Jun-23 09:00S 35°10' E 173°09'1 0.6 9.7
2018-Jun-23 07:00S 35°10' E 173°10'0 0.2 11.0
2018-Jun-23 05:00S 35°10' E 173°10'1 0.3 12.7
2018-Jun-23 03:00S 35°10' E 173°10'1 0.1 13.6
2018-Jun-22 21:00S 35°10' E 173°10'0 0.0 10.3
2018-Jun-22 20:00S 35°10' E 173°10'0 0.2 9.3
2018-Jun-22 18:00S 35°10' E 173°10'0 0.5 8.7
2018-Jun-22 17:00S 35°10' E 173°10'0 0.0 8.6
2018-Jun-22 16:00S 35°10' E 173°10'0 0.0 8.1
2018-Jun-22 15:00S 35°10' E 173°10'0 0.0 8.7
2018-Jun-22 11:00S 35°10' E 173°10'0 0.0 10.5
2018-Jun-22 10:00S 35°10' E 173°10'0 0.5 10.8
2018-Jun-22 09:00S 35°10' E 173°10'1 0.4 10.6
2018-Jun-22 06:00S 35°10' E 173°09'1 0.4 10.8
2018-Jun-22 04:00S 35°10' E 173°10'0 0.0 13.7
2018-Jun-22 03:00S 35°10' E 173°10'0 0.0 14.5
2018-Jun-21 22:00S 35°10' E 173°10'1 0.6 13.9
2018-Jun-21 21:00S 35°10' E 173°10'1 0.8 13.3
2018-Jun-21 20:00S 35°10' E 173°09'0 0.2 10.8
2018-Jun-21 18:00S 35°10' E 173°10'0 0.0 11.1
2018-Jun-21 17:00S 35°10' E 173°10'0 0.0 11.2
2018-Jun-21 16:00S 35°10' E 173°10'0 0.0 11.6
2018-Jun-21 15:00S 35°10' E 173°10'0 0.0 11.8
2018-Jun-21 11:00S 35°10' E 173°10'0 0.0 12.2
2018-Jun-21 10:00S 35°10' E 173°10'0 0.0 12.5
2018-Jun-21 09:00S 35°10' E 173°10'0 0.0 12.6
2018-Jun-21 08:00S 35°10' E 173°10'0 0.2 12.6
2018-Jun-21 05:00S 35°10' E 173°10'0 0.5 13.4
2018-Jun-21 04:00S 35°10' E 173°10'0 0.0 13.9
2018-Jun-20 22:00S 35°10' E 173°10'0 0.0 12.9
2018-Jun-20 21:00S 35°10' E 173°10'0 0.0 13.8
2018-Jun-20 20:00S 35°10' E 173°10'0 0.0 12.6
2018-Jun-20 19:00S 35°10' E 173°10'0 0.0 12.3
2018-Jun-20 18:00S 35°10' E 173°10'0 0.0 12.5
2018-Jun-20 17:00S 35°10' E 173°10'0 0.0 13.0
2018-Jun-20 15:00S 35°10' E 173°10'0 0.0 12.2
2018-Jun-20 11:00S 35°10' E 173°10'0 0.0 13.1
2018-Jun-20 10:00S 35°10' E 173°10'0 0.0 13.1
2018-Jun-20 09:00S 35°10' E 173°10'1 0.4 13.0
2018-Jun-20 07:00S 35°10' E 173°09'1 0.8 12.4
2018-Jun-20 06:00S 35°10' E 173°10'0 0.5 13.1
2018-Jun-20 05:00S 35°10' E 173°10'0 0.5 13.4
2018-Jun-20 04:00S 35°10' E 173°10'0 0.0 14.5
2018-Jun-20 03:00S 35°10' E 173°10'0 0.0 13.5
2018-Jun-19 21:00S 35°10' E 173°10'0 0.0 13.9
2018-Jun-19 20:00S 35°10' E 173°10'0 0.0 12.0
2018-Jun-19 19:00S 35°10' E 173°10'0 0.0 11.6
2018-Jun-19 18:00S 35°10' E 173°10'0 0.0 10.8
2018-Jun-19 17:00S 35°10' E 173°10'0 0.0 10.5
2018-Jun-19 15:00S 35°10' E 173°10'0 0.0 10.8
2018-Jun-19 11:00S 35°10' E 173°10'0 0.5 12.7
2018-Jun-19 10:00S 35°10' E 173°10'0 0.2 12.9
2018-Jun-19 07:00S 35°10' E 173°10'0 0.0 14.0
2018-Jun-19 06:00S 35°10' E 173°10'0 0.0 14.1
2018-Jun-19 05:00S 35°10' E 173°10'1 0.6 15.2
2018-Jun-19 04:00S 35°10' E 173°10'1 0.1 16.4
2018-Jun-18 22:00S 35°10' E 173°10'0 0.0 13.6
2018-Jun-18 20:00S 35°10' E 173°10'0 0.5 9.7
2018-Jun-18 19:00S 35°10' E 173°10'1 0.8 11.0
2018-Jun-18 18:00S 35°10' E 173°10'0 0.0 12.6
2018-Jun-18 17:00S 35°10' E 173°10'0 0.0 13.3
2018-Jun-18 16:00S 35°10' E 173°10'0 0.0 13.2
2018-Jun-18 15:00S 35°10' E 173°10'1 0.8 12.8
2018-Jun-18 14:00S 35°10' E 173°09'0 0.0 14.5
2018-Jun-18 11:00S 35°10' E 173°09'0 0.5 14.7
2018-Jun-18 10:00S 35°10' E 173°10'0 0.0 14.8
2018-Jun-18 09:00S 35°10' E 173°10'1 0.6 14.8
2018-Jun-18 08:00S 35°10' E 173°10'0 0.0 14.6
2018-Jun-18 07:00S 35°10' E 173°10'1 0.6 14.8
2018-Jun-18 06:00S 35°10' E 173°10'0 0.5 14.7
2018-Jun-18 05:00S 35°10' E 173°10'0 0.5 15.1
2018-Jun-18 04:00S 35°10' E 173°10'1 0.1 15.9
2018-Jun-17 22:00S 35°10' E 173°10'1 0.6 16.7
2018-Jun-17 21:00S 35°10' E 173°10'0 0.0 17.0
2018-Jun-17 20:00S 35°10' E 173°10'1 0.4 14.2
2018-Jun-17 18:00S 35°11' E 173°10'1 0.4 15.0
2018-Jun-17 16:00S 35°10' E 173°10'0 0.0 13.9
2018-Jun-17 14:00S 35°10' E 173°10'0 0.0 13.1
2018-Jun-17 11:00S 35°10' E 173°10'0 0.0 12.7
2018-Jun-17 10:00S 35°10' E 173°10'0 0.0 13.7
2018-Jun-17 09:00S 35°10' E 173°10'0 0.0 13.7
2018-Jun-17 08:00S 35°10' E 173°10'1 0.6 13.9
2018-Jun-17 07:00S 35°10' E 173°10'1 0.3 13.9
2018-Jun-17 05:00S 35°10' E 173°10'0 0.0 15.8
2018-Jun-17 04:00S 35°10' E 173°10'0 0.0 16.8
2018-Jun-16 22:00S 35°10' E 173°10'1 0.6 14.5
2018-Jun-16 21:00S 35°10' E 173°10'1 0.6 14.5
2018-Jun-16 20:00S 35°10' E 173°10'0 0.0 14.7
2018-Jun-16 19:00S 35°10' E 173°10'0 0.0 15.0
2018-Jun-16 18:00S 35°10' E 173°10'0 0.0 15.2
2018-Jun-16 16:00S 35°10' E 173°10'0 0.0 15.5
2018-Jun-16 15:00S 35°10' E 173°10'0 0.0 15.6
2018-Jun-16 14:00S 35°10' E 173°10'0 0.2 15.8
2018-Jun-16 11:00S 35°10' E 173°10'0 0.0 16.4
2018-Jun-16 10:00S 35°10' E 173°10'0 0.0 16.5
2018-Jun-16 09:00S 35°10' E 173°10'0 0.0 16.7
2018-Jun-16 07:00S 35°10' E 173°10'0 0.2 17.0
2018-Jun-16 05:00S 35°10' E 173°10'0 0.0 17.3
2018-Jun-16 04:00S 35°10' E 173°10'1 0.8 17.2
2018-Jun-16 03:00S 35°10' E 173°09'0 0.1 17.1
2018-Jun-15 21:00S 35°10' E 173°10'1 0.6 14.5
2018-Jun-15 20:00S 35°09' E 173°10'1 1.2 14.5
2018-Jun-15 19:00S 35°10' E 173°10'0 0.0 14.5
2018-Jun-15 18:00S 35°10' E 173°10'0 0.0 14.5
2018-Jun-15 16:00S 35°10' E 173°10'0 0.0 14.4
2018-Jun-15 15:00S 35°10' E 173°10'0 0.0 14.4
2018-Jun-15 14:00S 35°10' E 173°10'0 0.0 14.4
2018-Jun-15 11:00S 35°10' E 173°10'0 0.5 14.4
2018-Jun-15 10:00S 35°10' E 173°10'0 0.0 14.5
2018-Jun-15 09:00S 35°10' E 173°10'0 0.2 14.6
2018-Jun-15 07:00S 35°10' E 173°10'1 0.6 14.6
2018-Jun-15 06:00S 35°10' E 173°10'1 0.8 14.6
2018-Jun-15 05:00S 35°10' E 173°10'0 0.5 14.5
2018-Jun-15 04:00S 35°10' E 173°10'0 0.5 14.2
2018-Jun-15 03:00S 35°10' E 173°10'0 0.0 13.6
2018-Jun-15 02:00S 35°10' E 173°10'0 0.0 12.9
2018-Jun-14 22:00S 35°10' E 173°10'0 0.5 10.2
2018-Jun-14 21:00S 35°10' E 173°10'0 0.0 10.1
2018-Jun-14 20:00S 35°10' E 173°10'0 0.0 10.3
2018-Jun-14 19:00S 35°10' E 173°10'0 0.0 10.5
2018-Jun-14 17:00S 35°10' E 173°10'0 0.0 11.0
2018-Jun-14 16:00S 35°10' E 173°10'0 0.5 11.2
2018-Jun-14 15:00S 35°10' E 173°09'0 0.5 11.3
2018-Jun-14 14:00S 35°10' E 173°10'0 0.0 11.4
2018-Jun-14 11:00S 35°10' E 173°10'0 0.5 12.4
2018-Jun-14 10:00S 35°10' E 173°10'0 0.2 12.7
2018-Jun-14 08:00S 35°10' E 173°10'1 0.6 13.3
2018-Jun-14 07:00S 35°10' E 173°10'1 0.6 13.6
2018-Jun-14 06:00S 35°10' E 173°10'0 0.0 13.9
2018-Jun-14 05:00S 35°10' E 173°10'   14.0

Dump ship's entire track history